createdAt,value
2017-05-02T00:00:17.968Z,21.77
2017-05-02T00:01:27.572Z,21.71
2017-05-02T00:02:37.509Z,21.74
2017-05-02T00:03:47.407Z,21.75
2017-05-02T00:04:57.317Z,21.75
2017-05-02T00:06:07.529Z,21.86
2017-05-02T00:07:17.147Z,21.86
2017-05-02T00:08:26.763Z,21.77
2017-05-02T00:09:36.663Z,21.8
2017-05-02T00:10:46.883Z,21.74
2017-05-02T00:11:56.342Z,21.9
2017-05-02T00:13:06.566Z,21.79
2017-05-02T00:14:16.801Z,21.74
2017-05-02T00:15:26.418Z,21.86
2017-05-02T00:16:36.633Z,21.71
2017-05-02T00:17:47.142Z,21.84
2017-05-02T00:18:57.069Z,21.9
2017-05-02T00:20:07.284Z,21.84
2017-05-02T00:21:16.580Z,21.86
2017-05-02T00:22:26.505Z,21.79
2017-05-02T00:23:36.825Z,21.86
2017-05-02T00:24:47.037Z,21.86
2017-05-02T00:25:56.346Z,21.8
2017-05-02T00:27:06.261Z,21.84
2017-05-02T00:28:15.874Z,21.84
2017-05-02T00:29:25.473Z,21.88
2017-05-02T00:30:35.061Z,21.79
2017-05-02T00:31:44.359Z,21.84
2017-05-02T00:32:53.958Z,21.79
2017-05-02T00:34:04.180Z,21.86
2017-05-02T00:35:14.244Z,21.91
2017-05-02T00:36:23.840Z,21.92
2017-05-02T00:37:33.747Z,21.84
2017-05-02T00:38:43.662Z,21.86
2017-05-02T00:39:53.584Z,21.98
2017-05-02T00:41:03.816Z,21.82
2017-05-02T00:42:13.151Z,21.84
2017-05-02T00:43:22.776Z,21.86
2017-05-02T00:44:33.351Z,21.9
2017-05-02T00:45:43.577Z,21.88
2017-05-02T00:46:53.833Z,21.88
2017-05-02T00:48:03.750Z,21.98
2017-05-02T00:49:13.649Z,21.88
2017-05-02T00:50:23.867Z,21.83
2017-05-02T00:51:34.101Z,21.86
2017-05-02T00:52:44.165Z,21.83
2017-05-02T00:53:54.083Z,21.92
2017-05-02T00:55:04.296Z,21.92
2017-05-02T00:56:14.192Z,21.9
2017-05-02T00:57:24.096Z,21.86
2017-05-02T00:58:34.152Z,21.84
2017-05-02T00:59:44.367Z,21.84
2017-05-02T01:00:54.278Z,21.92
2017-05-02T01:02:04.496Z,21.8
2017-05-02T01:03:14.707Z,21.91
2017-05-02T01:04:25.227Z,21.92
2017-05-02T01:05:35.136Z,21.9
2017-05-02T01:06:45.039Z,21.91
2017-05-02T01:07:54.640Z,21.96
2017-05-02T01:09:04.847Z,21.88
2017-05-02T01:10:14.613Z,21.96
2017-05-02T01:11:24.562Z,21.98
2017-05-02T01:12:34.464Z,21.92
2017-05-02T01:13:44.689Z,21.92
2017-05-02T01:14:54.633Z,21.9
2017-05-02T01:16:05.244Z,21.82
2017-05-02T01:17:15.150Z,21.91
2017-05-02T01:18:25.061Z,21.82
2017-05-02T01:19:35.283Z,21.9
2017-05-02T01:20:44.580Z,21.83
2017-05-02T01:21:54.732Z,21.84
2017-05-02T01:23:04.637Z,21.9
2017-05-02T01:24:14.554Z,21.9
2017-05-02T01:25:24.772Z,21.98
2017-05-02T01:26:34.667Z,21.91
2017-05-02T01:27:45.027Z,21.88
2017-05-02T01:28:53.709Z,21.92
2017-05-02T01:30:03.936Z,21.92
2017-05-02T01:31:13.842Z,21.9
2017-05-02T01:32:23.438Z,21.92
2017-05-02T01:33:33.670Z,21.92
2017-05-02T01:34:43.590Z,21.9
2017-05-02T01:35:53.228Z,21.91
2017-05-02T01:37:03.148Z,21.86
2017-05-02T01:38:12.750Z,21.91
2017-05-02T01:39:22.963Z,21.92
2017-05-02T01:40:32.877Z,21.86
2017-05-02T01:41:43.084Z,21.98
2017-05-02T01:42:53.301Z,21.92
2017-05-02T01:44:03.216Z,21.96
2017-05-02T01:45:12.763Z,21.94
2017-05-02T01:46:22.663Z,21.86
2017-05-02T01:47:32.268Z,21.98
2017-05-02T01:48:41.865Z,21.98
2017-05-02T01:49:51.799Z,21.92
2017-05-02T01:51:01.964Z,21.9
2017-05-02T01:52:11.571Z,21.88
2017-05-02T01:53:21.170Z,21.91
2017-05-02T01:54:31.090Z,21.92
2017-05-02T01:55:40.999Z,21.9
2017-05-02T01:56:51.367Z,21.83
2017-05-02T01:58:01.363Z,21.86
2017-05-02T01:59:11.255Z,21.91
2017-05-02T02:00:21.473Z,21.91
2017-05-02T02:01:31.071Z,21.92
2017-05-02T02:02:41.576Z,21.96
2017-05-02T02:03:51.484Z,21.91
2017-05-02T02:05:01.428Z,21.9
2017-05-02T02:06:11.349Z,21.92
2017-05-02T02:07:21.260Z,21.9
2017-05-02T02:08:31.170Z,21.91
2017-05-02T02:09:41.081Z,21.86
2017-05-02T02:10:50.997Z,21.88
2017-05-02T02:12:00.895Z,21.86
2017-05-02T02:13:10.810Z,21.88
2017-05-02T02:14:20.768Z,21.83
2017-05-02T02:15:30.667Z,21.92
2017-05-02T02:16:40.560Z,21.92
2017-05-02T02:17:50.817Z,21.98
2017-05-02T02:19:00.115Z,21.88
2017-05-02T02:20:09.810Z,21.92
2017-05-02T02:21:19.407Z,21.92
2017-05-02T02:22:29.306Z,21.91
2017-05-02T02:23:39.516Z,21.9
2017-05-02T02:24:49.430Z,21.98
2017-05-02T02:26:00.050Z,21.82
2017-05-02T02:27:10.265Z,21.84
2017-05-02T02:28:19.866Z,21.84
2017-05-02T02:29:29.778Z,21.92
2017-05-02T02:30:39.678Z,21.88
2017-05-02T02:31:50.185Z,21.92
2017-05-02T02:33:00.090Z,21.9
2017-05-02T02:34:10.302Z,21.9
2017-05-02T02:35:19.912Z,21.86
2017-05-02T02:36:30.122Z,21.88
2017-05-02T02:37:40.288Z,21.92
2017-05-02T02:38:50.190Z,21.82
2017-05-02T02:39:59.806Z,21.83
2017-05-02T02:41:09.404Z,21.84
2017-05-02T02:42:19.302Z,21.83
2017-05-02T02:43:29.466Z,21.92
2017-05-02T02:44:39.381Z,21.84
2017-05-02T02:45:48.980Z,21.86
2017-05-02T02:46:59.243Z,21.91
2017-05-02T02:48:08.521Z,21.83
2017-05-02T02:49:18.587Z,21.9
2017-05-02T02:50:28.179Z,21.83
2017-05-02T02:51:38.407Z,21.86
2017-05-02T02:52:48.313Z,21.92
2017-05-02T02:53:58.237Z,21.86
2017-05-02T02:55:08.295Z,21.94
2017-05-02T02:56:18.194Z,21.9
2017-05-02T02:57:28.104Z,21.9
2017-05-02T02:58:38.018Z,21.91
2017-05-02T02:59:47.920Z,21.9
2017-05-02T03:00:58.497Z,21.84
2017-05-02T03:02:07.805Z,21.88
2017-05-02T03:03:17.093Z,21.9
2017-05-02T03:04:26.399Z,21.86
2017-05-02T03:05:36.626Z,21.92
2017-05-02T03:06:46.883Z,21.86
2017-05-02T03:07:57.091Z,21.92
2017-05-02T03:09:06.992Z,21.83
2017-05-02T03:10:16.904Z,21.91
2017-05-02T03:11:26.809Z,21.86
2017-05-02T03:12:36.808Z,21.86
2017-05-02T03:13:46.706Z,21.92
2017-05-02T03:14:56.609Z,21.96
2017-05-02T03:16:06.522Z,21.9
2017-05-02T03:17:16.122Z,21.88
2017-05-02T03:18:26.319Z,21.84
2017-05-02T03:19:36.534Z,21.98
2017-05-02T03:20:46.737Z,21.92
2017-05-02T03:21:56.641Z,21.96
2017-05-02T03:23:06.846Z,21.92
2017-05-02T03:24:17.106Z,21.79
2017-05-02T03:25:27.319Z,21.9
2017-05-02T03:26:37.235Z,21.94
2017-05-02T03:27:47.444Z,21.98
2017-05-02T03:28:57.678Z,21.86
2017-05-02T03:30:07.117Z,21.91
2017-05-02T03:31:17.024Z,21.86
2017-05-02T03:32:26.623Z,21.86
2017-05-02T03:33:36.558Z,21.92
2017-05-02T03:34:46.461Z,21.99
2017-05-02T03:35:56.626Z,21.9
2017-05-02T03:37:06.527Z,21.92
2017-05-02T03:38:16.434Z,21.92
2017-05-02T03:39:26.644Z,21.92
2017-05-02T03:40:36.854Z,21.91
2017-05-02T03:41:46.552Z,21.91
2017-05-02T03:42:56.451Z,21.91
2017-05-02T03:44:06.359Z,21.92
2017-05-02T03:45:16.260Z,21.96
2017-05-02T03:46:25.852Z,21.86
2017-05-02T03:47:35.609Z,21.92
2017-05-02T03:48:45.829Z,21.86
2017-05-02T03:49:56.052Z,21.88
2017-05-02T03:51:06.268Z,21.91
2017-05-02T03:52:16.172Z,21.94
2017-05-02T03:53:26.328Z,21.96
2017-05-02T03:54:36.238Z,21.91
2017-05-02T03:55:46.441Z,21.86
2017-05-02T03:56:56.039Z,21.9
2017-05-02T03:58:06.252Z,21.82
2017-05-02T03:59:16.313Z,21.92
2017-05-02T04:00:26.209Z,21.86
2017-05-02T04:01:36.419Z,21.91
2017-05-02T04:02:46.627Z,21.94
2017-05-02T04:03:56.249Z,21.83
2017-05-02T04:05:06.613Z,21.91
2017-05-02T04:06:16.868Z,21.94
2017-05-02T04:07:26.770Z,21.84
2017-05-02T04:08:36.376Z,21.9
2017-05-02T04:09:46.587Z,21.98
2017-05-02T04:10:56.634Z,21.88
2017-05-02T04:12:06.260Z,21.92
2017-05-02T04:13:15.878Z,21.91
2017-05-02T04:14:26.092Z,21.92
2017-05-02T04:15:36.000Z,21.88
2017-05-02T04:16:46.394Z,21.94
2017-05-02T04:17:56.299Z,21.88
2017-05-02T04:19:06.514Z,21.9
2017-05-02T04:20:16.744Z,21.88
2017-05-02T04:21:26.955Z,21.88
2017-05-02T04:22:37.174Z,21.91
2017-05-02T04:23:47.076Z,21.88
2017-05-02T04:24:57.284Z,21.98
2017-05-02T04:26:07.177Z,21.96
2017-05-02T04:27:16.774Z,21.9
2017-05-02T04:28:26.219Z,21.92
2017-05-02T04:29:35.847Z,21.88
2017-05-02T04:30:45.474Z,21.92
2017-05-02T04:31:55.055Z,21.96
2017-05-02T04:33:05.263Z,21.98
2017-05-02T04:34:15.288Z,21.9
2017-05-02T04:35:25.192Z,21.9
2017-05-02T04:36:35.144Z,21.96
2017-05-02T04:37:45.371Z,21.99
2017-05-02T04:38:55.268Z,21.98
2017-05-02T04:40:05.351Z,21.96
2017-05-02T04:41:15.555Z,21.96
2017-05-02T04:42:25.192Z,22.09
2017-05-02T04:43:35.445Z,22.09
2017-05-02T04:44:45.361Z,22.07
2017-05-02T04:45:55.621Z,22.14
2017-05-02T04:47:05.215Z,22.21
2017-05-02T04:48:15.434Z,22.24
2017-05-02T04:49:25.031Z,22.21
2017-05-02T04:50:35.256Z,22.28
2017-05-02T04:51:45.720Z,22.24
2017-05-02T04:52:55.960Z,22.31
2017-05-02T04:54:06.185Z,22.36
2017-05-02T04:55:16.095Z,22.39
2017-05-02T04:56:26.025Z,22.43
2017-05-02T04:57:36.332Z,22.45
2017-05-02T04:58:46.540Z,22.49
2017-05-02T04:59:56.773Z,22.58
2017-05-02T05:01:06.384Z,22.51
2017-05-02T05:02:16.598Z,22.6
2017-05-02T05:03:27.516Z,22.58
2017-05-02T05:04:37.419Z,22.7
2017-05-02T05:05:47.637Z,22.72
2017-05-02T05:06:56.936Z,22.77
2017-05-02T05:08:07.168Z,22.86
2017-05-02T05:09:17.690Z,22.85
2017-05-02T05:10:27.602Z,22.9
2017-05-02T05:11:37.515Z,22.97
2017-05-02T05:12:47.725Z,23
2017-05-02T05:13:57.943Z,23
2017-05-02T05:15:07.991Z,23.02
2017-05-02T05:16:17.885Z,23.04
2017-05-02T05:17:27.491Z,23.1
2017-05-02T05:18:37.698Z,23.15
2017-05-02T05:19:47.596Z,23.17
2017-05-02T05:20:57.656Z,23.27
2017-05-02T05:22:07.898Z,23.25
2017-05-02T05:23:17.797Z,23.28
2017-05-02T05:24:28.010Z,23.33
2017-05-02T05:25:38.235Z,23.38
2017-05-02T05:26:48.423Z,23.36
2017-05-02T05:27:58.022Z,23.43
2017-05-02T05:29:08.239Z,23.53
2017-05-02T05:30:18.161Z,23.58
2017-05-02T05:31:28.061Z,23.61
2017-05-02T05:32:38.968Z,23.65
2017-05-02T05:33:49.552Z,23.63
2017-05-02T05:34:59.451Z,23.66
2017-05-02T05:36:09.351Z,23.7
2017-05-02T05:37:18.948Z,23.84
2017-05-02T05:38:29.494Z,23.87
2017-05-02T05:39:39.408Z,23.9
2017-05-02T05:40:49.317Z,23.8
2017-05-02T05:41:58.943Z,23.91
2017-05-02T05:43:08.861Z,23.87
2017-05-02T05:44:19.069Z,23.93
2017-05-02T05:45:28.984Z,23.91
2017-05-02T05:46:39.200Z,24.02
2017-05-02T05:47:49.402Z,23.98
2017-05-02T05:48:59.295Z,23.94
2017-05-02T05:50:09.385Z,23.98
2017-05-02T05:51:18.977Z,23.95
2017-05-02T05:52:29.190Z,23.97
2017-05-02T05:53:39.106Z,23.91
2017-05-02T05:54:48.702Z,23.98
2017-05-02T05:55:58.912Z,23.91
2017-05-02T05:57:08.513Z,23.97
2017-05-02T05:58:17.816Z,23.97
2017-05-02T05:59:27.419Z,23.95
2017-05-02T06:00:37.321Z,23.84
2017-05-02T06:01:47.211Z,23.94
2017-05-02T06:02:57.128Z,23.91
2017-05-02T06:04:07.040Z,23.85
2017-05-02T06:05:17.260Z,23.9
2017-05-02T06:06:27.168Z,23.83
2017-05-02T06:07:37.533Z,23.8
2017-05-02T06:08:47.455Z,23.8
2017-05-02T06:09:57.365Z,23.76
2017-05-02T06:11:07.273Z,23.75
2017-05-02T06:12:17.173Z,23.79
2017-05-02T06:13:26.922Z,23.65
2017-05-02T06:14:37.161Z,23.73
2017-05-02T06:15:47.066Z,23.72
2017-05-02T06:16:56.969Z,23.75
2017-05-02T06:18:06.871Z,23.65
2017-05-02T06:19:17.335Z,23.68
2017-05-02T06:20:26.959Z,23.69
2017-05-02T06:21:37.175Z,23.66
2017-05-02T06:22:47.079Z,23.55
2017-05-02T06:23:56.981Z,23.57
2017-05-02T06:25:07.137Z,23.53
2017-05-02T06:26:17.040Z,23.53
2017-05-02T06:27:26.662Z,23.54
2017-05-02T06:28:36.876Z,23.51
2017-05-02T06:29:46.783Z,23.43
2017-05-02T06:30:56.535Z,23.42
2017-05-02T06:32:06.134Z,23.36
2017-05-02T06:33:15.135Z,23.4
2017-05-02T06:34:24.748Z,23.39
2017-05-02T06:35:34.968Z,23.36
2017-05-02T06:36:45.334Z,23.4
2017-05-02T06:37:55.247Z,23.27
2017-05-02T06:39:05.515Z,23.28
2017-05-02T06:40:15.417Z,23.25
2017-05-02T06:41:25.019Z,23.17
2017-05-02T06:42:35.189Z,23.2
2017-05-02T06:43:45.116Z,23.2
2017-05-02T06:44:55.029Z,23.23
2017-05-02T06:46:04.628Z,23.19
2017-05-02T06:47:14.231Z,23.12
2017-05-02T06:48:24.445Z,23.17
2017-05-02T06:49:34.356Z,23.07
2017-05-02T06:50:44.564Z,23.04
2017-05-02T06:51:54.468Z,23.12
2017-05-02T06:53:04.692Z,23
2017-05-02T06:54:14.239Z,23.05
2017-05-02T06:55:24.155Z,23
2017-05-02T06:56:34.379Z,23.01
2017-05-02T06:57:44.337Z,23.04
2017-05-02T06:58:53.932Z,23
2017-05-02T07:00:03.947Z,22.94
2017-05-02T07:01:13.869Z,23.01
2017-05-02T07:02:23.785Z,22.92
2017-05-02T07:03:33.085Z,22.92
2017-05-02T07:04:42.689Z,22.94
2017-05-02T07:05:52.840Z,22.94
2017-05-02T07:07:02.450Z,22.91
2017-05-02T07:08:12.657Z,22.92
2017-05-02T07:09:22.566Z,22.9
2017-05-02T07:10:32.470Z,22.92
2017-05-02T07:11:42.339Z,22.9
2017-05-02T07:12:52.554Z,22.88
2017-05-02T07:14:02.452Z,22.88
2017-05-02T07:15:11.446Z,22.86
2017-05-02T07:16:21.037Z,22.79
2017-05-02T07:17:30.366Z,22.82
2017-05-02T07:18:39.964Z,22.82
2017-05-02T07:19:49.265Z,22.76
2017-05-02T07:20:58.890Z,22.79
2017-05-02T07:22:09.108Z,22.8
2017-05-02T07:23:19.175Z,22.79
2017-05-02T07:24:29.089Z,22.65
2017-05-02T07:25:39.310Z,22.64
2017-05-02T07:26:49.208Z,22.65
2017-05-02T07:27:58.823Z,22.73
2017-05-02T07:29:08.678Z,22.7
2017-05-02T07:30:18.906Z,22.65
2017-05-02T07:31:28.818Z,22.67
2017-05-02T07:32:38.429Z,22.62
2017-05-02T07:33:48.334Z,22.58
2017-05-02T07:34:58.904Z,22.6
2017-05-02T07:36:08.560Z,22.72
2017-05-02T07:37:18.466Z,22.58
2017-05-02T07:38:27.779Z,22.62
2017-05-02T07:39:38.007Z,22.6
2017-05-02T07:40:48.520Z,22.6
2017-05-02T07:41:57.830Z,22.54
2017-05-02T07:43:07.733Z,22.7
2017-05-02T07:44:16.738Z,22.62
2017-05-02T07:45:26.674Z,22.58
2017-05-02T07:46:36.738Z,22.65
2017-05-02T07:47:46.650Z,22.67
2017-05-02T07:48:56.897Z,22.55
2017-05-02T07:50:06.511Z,22.61
2017-05-02T07:51:16.742Z,22.58
2017-05-02T07:52:27.073Z,22.58
2017-05-02T07:53:36.368Z,22.58
2017-05-02T07:54:46.284Z,22.67
2017-05-02T07:55:56.509Z,22.55
2017-05-02T07:57:05.802Z,22.58
2017-05-02T07:58:15.642Z,22.64
2017-05-02T07:59:25.574Z,22.62
2017-05-02T08:00:34.600Z,22.67
2017-05-02T08:01:43.915Z,22.64
2017-05-02T08:02:53.839Z,22.7
2017-05-02T08:04:04.056Z,22.52
2017-05-02T08:05:13.963Z,22.61
2017-05-02T08:06:22.960Z,22.62
2017-05-02T08:07:32.876Z,22.62
2017-05-02T08:08:42.808Z,22.55
2017-05-02T08:09:53.170Z,22.61
2017-05-02T08:11:03.078Z,22.61
2017-05-02T08:12:12.060Z,22.57
2017-05-02T08:13:21.961Z,22.55
2017-05-02T08:14:31.855Z,22.54
2017-05-02T08:15:42.359Z,22.62
2017-05-02T08:16:52.322Z,22.64
2017-05-02T08:18:02.267Z,22.61
2017-05-02T08:19:12.168Z,22.58
2017-05-02T08:20:22.086Z,22.62
2017-05-02T08:21:32.696Z,22.62
2017-05-02T08:22:42.599Z,22.58
2017-05-02T08:23:52.809Z,22.57
2017-05-02T08:25:02.716Z,22.58
2017-05-02T08:26:12.350Z,22.67
2017-05-02T08:27:22.666Z,22.61
2017-05-02T08:28:31.966Z,22.55
2017-05-02T08:29:41.876Z,22.58
2017-05-02T08:30:51.790Z,22.64
2017-05-02T08:32:01.695Z,22.58
2017-05-02T08:33:11.859Z,22.65
2017-05-02T08:34:21.468Z,22.6
2017-05-02T08:35:31.076Z,22.61
2017-05-02T08:36:40.990Z,22.7
2017-05-02T08:37:50.901Z,22.57
2017-05-02T08:39:01.368Z,22.62
2017-05-02T08:40:11.595Z,22.64
2017-05-02T08:41:20.900Z,22.68
2017-05-02T08:42:30.512Z,22.7
2017-05-02T08:43:39.819Z,22.64
2017-05-02T08:44:50.129Z,22.62
2017-05-02T08:46:00.043Z,22.58
2017-05-02T08:47:09.663Z,22.61
2017-05-02T08:48:19.565Z,22.6
2017-05-02T08:49:29.485Z,22.57
2017-05-02T08:50:39.385Z,22.58
2017-05-02T08:51:49.601Z,22.61
2017-05-02T08:52:59.213Z,22.55
2017-05-02T08:54:09.131Z,22.62
2017-05-02T08:55:19.046Z,22.61
2017-05-02T08:56:29.252Z,22.68
2017-05-02T08:57:39.450Z,22.61
2017-05-02T08:58:49.673Z,22.62
2017-05-02T08:59:59.280Z,22.67
2017-05-02T09:01:09.516Z,22.58
2017-05-02T09:02:19.515Z,22.72
2017-05-02T09:03:29.132Z,22.62
2017-05-02T09:04:39.049Z,22.57
2017-05-02T09:05:48.660Z,22.58
2017-05-02T09:06:58.278Z,22.57
2017-05-02T09:08:08.031Z,22.61
2017-05-02T09:09:17.931Z,22.62
2017-05-02T09:10:27.536Z,22.58
2017-05-02T09:11:37.439Z,22.6
2017-05-02T09:12:47.650Z,22.61
2017-05-02T09:13:58.578Z,22.57
2017-05-02T09:15:08.790Z,22.61
2017-05-02T09:16:18.723Z,22.57
2017-05-02T09:17:28.645Z,22.6
2017-05-02T09:18:38.888Z,22.57
2017-05-02T09:19:49.049Z,22.62
2017-05-02T09:20:59.265Z,22.65
2017-05-02T09:22:08.878Z,22.6
2017-05-02T09:23:18.505Z,22.68
2017-05-02T09:24:28.416Z,22.58
2017-05-02T09:25:38.573Z,22.67
2017-05-02T09:26:48.785Z,22.68
2017-05-02T09:27:59.042Z,22.67
2017-05-02T09:29:09.258Z,22.68
2017-05-02T09:30:19.483Z,22.68
2017-05-02T09:31:29.384Z,22.73
2017-05-02T09:32:38.997Z,22.7
2017-05-02T09:33:49.248Z,22.72
2017-05-02T09:34:58.872Z,22.68
2017-05-02T09:36:09.090Z,22.7
2017-05-02T09:37:19.314Z,22.61
2017-05-02T09:38:29.259Z,22.72
2017-05-02T09:39:38.872Z,22.73
2017-05-02T09:40:48.788Z,22.73
2017-05-02T09:41:59.003Z,22.65
2017-05-02T09:43:08.700Z,22.75
2017-05-02T09:44:18.313Z,22.7
2017-05-02T09:45:28.538Z,22.72
2017-05-02T09:46:38.770Z,22.67
2017-05-02T09:47:48.689Z,22.8
2017-05-02T09:48:58.396Z,22.82
2017-05-02T09:50:08.314Z,22.82
2017-05-02T09:51:17.913Z,22.73
2017-05-02T09:52:27.860Z,22.82
2017-05-02T09:53:38.088Z,22.82
2017-05-02T09:54:48.617Z,22.8
2017-05-02T09:55:58.859Z,22.85
2017-05-02T09:57:08.481Z,22.9
2017-05-02T09:58:17.781Z,22.91
2017-05-02T09:59:27.685Z,22.88
2017-05-02T10:00:37.692Z,22.88
2017-05-02T10:01:47.603Z,22.92
2017-05-02T10:02:57.208Z,22.95
2017-05-02T10:04:07.120Z,22.95
2017-05-02T10:05:17.337Z,22.94
2017-05-02T10:06:27.246Z,22.98
2017-05-02T10:07:37.157Z,22.92
2017-05-02T10:08:47.390Z,22.9
2017-05-02T10:09:57.607Z,22.9
2017-05-02T10:11:07.224Z,22.91
2017-05-02T10:12:16.967Z,22.94
2017-05-02T10:13:27.192Z,22.94
2017-05-02T10:14:37.410Z,22.92
2017-05-02T10:15:47.623Z,22.98
2017-05-02T10:16:57.525Z,22.97
2017-05-02T10:18:07.744Z,22.95
2017-05-02T10:19:17.400Z,22.92
2017-05-02T10:20:27.054Z,22.88
2017-05-02T10:21:36.360Z,22.97
2017-05-02T10:22:46.282Z,22.94
2017-05-02T10:23:56.534Z,22.94
2017-05-02T10:25:06.129Z,22.9
2017-05-02T10:26:16.046Z,22.94
2017-05-02T10:27:25.991Z,22.91
2017-05-02T10:28:36.275Z,22.92
2017-05-02T10:29:45.379Z,22.94
2017-05-02T10:30:55.602Z,22.98
2017-05-02T10:32:05.202Z,22.95
2017-05-02T10:33:15.114Z,23.02
2017-05-02T10:34:25.025Z,23.04
2017-05-02T10:35:35.186Z,23.02
2017-05-02T10:36:45.402Z,23.02
2017-05-02T10:37:55.318Z,23.1
2017-05-02T10:39:05.542Z,23.12
2017-05-02T10:40:15.784Z,23.12
2017-05-02T10:41:25.170Z,23.07
2017-05-02T10:42:35.089Z,23.05
2017-05-02T10:43:45.311Z,23.16
2017-05-02T10:44:55.529Z,23.12
2017-05-02T10:46:05.443Z,23.13
2017-05-02T10:47:14.914Z,23.22
2017-05-02T10:48:24.822Z,23.22
2017-05-02T10:49:35.024Z,23.16
2017-05-02T10:50:44.314Z,23.27
2017-05-02T10:51:54.229Z,23.25
2017-05-02T10:53:04.748Z,23.38
2017-05-02T10:54:14.985Z,23.36
2017-05-02T10:55:25.200Z,23.39
2017-05-02T10:56:35.103Z,23.38
2017-05-02T10:57:45.012Z,23.42
2017-05-02T10:58:54.464Z,23.42
2017-05-02T11:00:04.402Z,23.5
2017-05-02T11:01:13.999Z,23.4
2017-05-02T11:02:24.235Z,23.5
2017-05-02T11:03:34.450Z,23.47
2017-05-02T11:04:44.307Z,23.51
2017-05-02T11:05:54.225Z,23.57
2017-05-02T11:07:04.149Z,23.54
2017-05-02T11:08:14.062Z,23.58
2017-05-02T11:09:24.281Z,23.57
2017-05-02T11:10:34.773Z,23.58
2017-05-02T11:11:44.676Z,23.61
2017-05-02T11:12:54.573Z,23.55
2017-05-02T11:14:04.477Z,23.54
2017-05-02T11:15:14.704Z,23.57
2017-05-02T11:16:24.924Z,23.5
2017-05-02T11:17:35.157Z,23.54
2017-05-02T11:18:44.753Z,23.53
2017-05-02T11:19:54.671Z,23.4
2017-05-02T11:21:04.887Z,23.43
2017-05-02T11:22:14.901Z,23.38
2017-05-02T11:23:24.523Z,23.39
2017-05-02T11:24:34.443Z,23.43
2017-05-02T11:25:43.748Z,23.39
2017-05-02T11:26:54.263Z,23.39
2017-05-02T11:28:04.492Z,23.23
2017-05-02T11:29:14.425Z,23.22
2017-05-02T11:30:24.638Z,23.27
2017-05-02T11:31:34.541Z,23.28
2017-05-02T11:32:44.455Z,23.23
2017-05-02T11:33:54.163Z,23.22
2017-05-02T11:35:04.375Z,23.19
2017-05-02T11:36:13.970Z,23.17
2017-05-02T11:37:23.887Z,23.15
2017-05-02T11:38:33.517Z,23.15
2017-05-02T11:39:43.726Z,23.17
2017-05-02T11:40:53.349Z,23.05
2017-05-02T11:42:03.585Z,23.16
2017-05-02T11:43:13.499Z,23.17
2017-05-02T11:44:23.727Z,23.12
2017-05-02T11:45:34.034Z,23.15
2017-05-02T11:46:43.974Z,23.04
2017-05-02T11:47:53.895Z,23.07
2017-05-02T11:49:03.812Z,23.16
2017-05-02T11:50:13.729Z,23.07
2017-05-02T11:51:23.628Z,23.2
2017-05-02T11:52:33.837Z,23.17
2017-05-02T11:53:44.055Z,23.19
2017-05-02T11:54:53.657Z,23.2
2017-05-02T11:56:03.261Z,23.2
2017-05-02T11:57:13.268Z,23.31
2017-05-02T11:58:22.888Z,23.31
2017-05-02T11:59:32.188Z,23.2
2017-05-02T12:00:41.794Z,23.42
2017-05-02T12:01:52.029Z,23.33
2017-05-02T12:03:02.552Z,23.33
2017-05-02T12:04:12.473Z,23.46
2017-05-02T12:05:22.080Z,23.47
2017-05-02T12:06:31.700Z,23.46
2017-05-02T12:07:41.608Z,23.43
2017-05-02T12:08:51.311Z,23.42
2017-05-02T12:10:01.216Z,23.46
2017-05-02T12:11:10.593Z,23.48
2017-05-02T12:12:19.571Z,23.46
2017-05-02T12:13:29.792Z,23.57
2017-05-02T12:14:40.193Z,23.53
2017-05-02T12:15:49.797Z,23.54
2017-05-02T12:17:00.029Z,23.5
2017-05-02T12:18:09.631Z,23.48
2017-05-02T12:19:18.924Z,23.51
2017-05-02T12:20:28.354Z,23.47
2017-05-02T12:21:37.955Z,23.5
2017-05-02T12:22:47.547Z,23.42
2017-05-02T12:23:57.761Z,23.39
2017-05-02T12:25:07.980Z,23.35
2017-05-02T12:26:17.525Z,23.33
2017-05-02T12:27:27.432Z,23.35
2017-05-02T12:28:37.056Z,23.4
2017-05-02T12:29:46.659Z,23.33
2017-05-02T12:30:56.871Z,23.22
2017-05-02T12:32:07.330Z,23.32
2017-05-02T12:33:17.550Z,23.25
2017-05-02T12:34:27.789Z,23.31
2017-05-02T12:35:37.385Z,23.27
2017-05-02T12:36:47.287Z,23.23
2017-05-02T12:37:57.664Z,23.22
2017-05-02T12:39:07.275Z,23.31
2017-05-02T12:40:16.877Z,23.25
2017-05-02T12:41:27.090Z,23.25
2017-05-02T12:42:37.000Z,23.19
2017-05-02T12:43:47.161Z,23.23
2017-05-02T12:44:57.370Z,23.2
2017-05-02T12:46:06.973Z,23.2
2017-05-02T12:47:16.575Z,23.17
2017-05-02T12:48:26.802Z,23.13
2017-05-02T12:49:36.864Z,23.16
2017-05-02T12:50:46.763Z,23.09
2017-05-02T12:51:56.713Z,23.12
2017-05-02T12:53:06.933Z,23.05
2017-05-02T12:54:16.847Z,23.13
